sensor_id;sensor_type;location;lat;lon;timestamp;P1;durP1;ratioP1;P2;durP2;ratioP2
39102;SDS011;24847;48.218;16.414;2022-09-16T00:00:25;1.75;;;1.23;;
39102;SDS011;24847;48.218;16.414;2022-09-16T00:05:29;2.30;;;1.15;;
39102;SDS011;24847;48.218;16.414;2022-09-16T00:10:38;1.92;;;1.35;;
39102;SDS011;24847;48.218;16.414;2022-09-16T00:15:46;1.50;;;1.10;;
39102;SDS011;24847;48.218;16.414;2022-09-16T00:20:51;1.45;;;1.35;;
39102;SDS011;24847;48.218;16.414;2022-09-16T00:25:55;1.42;;;1.05;;
39102;SDS011;24847;48.218;16.414;2022-09-16T00:30:58;1.45;;;1.20;;
39102;SDS011;24847;48.218;16.414;2022-09-16T00:36:06;1.17;;;1.08;;
39102;SDS011;24847;48.218;16.414;2022-09-16T00:41:14;3.03;;;1.23;;
39102;SDS011;24847;48.218;16.414;2022-09-16T00:46:21;2.10;;;1.50;;
39102;SDS011;24847;48.218;16.414;2022-09-16T00:51:31;2.17;;;1.05;;
39102;SDS011;24847;48.218;16.414;2022-09-16T00:56:36;1.77;;;1.25;;
39102;SDS011;24847;48.218;16.414;2022-09-16T01:01:40;3.75;;;1.25;;
39102;SDS011;24847;48.218;16.414;2022-09-16T01:06:44;1.73;;;1.30;;
39102;SDS011;24847;48.218;16.414;2022-09-16T01:11:48;1.73;;;1.38;;
39102;SDS011;24847;48.218;16.414;2022-09-16T01:16:52;1.45;;;1.35;;
39102;SDS011;24847;48.218;16.414;2022-09-16T01:22:04;1.65;;;1.50;;
39102;SDS011;24847;48.218;16.414;2022-09-16T01:27:29;1.70;;;1.20;;
39102;SDS011;24847;48.218;16.414;2022-09-16T01:33:00;2.95;;;1.40;;
39102;SDS011;24847;48.218;16.414;2022-09-16T01:38:07;2.03;;;1.50;;
39102;SDS011;24847;48.218;16.414;2022-09-16T01:43:20;1.73;;;1.35;;
39102;SDS011;24847;48.218;16.414;2022-09-16T01:48:31;1.27;;;1.17;;
39102;SDS011;24847;48.218;16.414;2022-09-16T01:53:40;1.60;;;1.35;;
39102;SDS011;24847;48.218;16.414;2022-09-16T01:58:50;2.22;;;1.35;;
39102;SDS011;24847;48.218;16.414;2022-09-16T02:04:00;2.00;;;1.50;;
39102;SDS011;24847;48.218;16.414;2022-09-16T02:09:14;1.75;;;1.52;;
39102;SDS011;24847;48.218;16.414;2022-09-16T02:14:22;1.75;;;1.42;;
39102;SDS011;24847;48.218;16.414;2022-09-16T02:19:30;1.60;;;1.50;;
39102;SDS011;24847;48.218;16.414;2022-09-16T02:24:41;1.58;;;1.30;;
39102;SDS011;24847;48.218;16.414;2022-09-16T02:29:45;1.70;;;1.48;;
39102;SDS011;24847;48.218;16.414;2022-09-16T02:34:53;3.65;;;1.70;;
39102;SDS011;24847;48.218;16.414;2022-09-16T02:39:57;1.98;;;1.60;;
39102;SDS011;24847;48.218;16.414;2022-09-16T02:45:05;2.75;;;1.80;;
39102;SDS011;24847;48.218;16.414;2022-09-16T02:50:12;2.28;;;1.23;;
39102;SDS011;24847;48.218;16.414;2022-09-16T02:55:19;2.70;;;1.55;;
39102;SDS011;24847;48.218;16.414;2022-09-16T03:00:40;2.60;;;1.73;;
39102;SDS011;24847;48.218;16.414;2022-09-16T03:06:02;3.17;;;2.30;;
39102;SDS011;24847;48.218;16.414;2022-09-16T03:11:24;3.53;;;2.30;;
39102;SDS011;24847;48.218;16.414;2022-09-16T03:16:41;2.13;;;1.92;;
39102;SDS011;24847;48.218;16.414;2022-09-16T03:21:58;3.65;;;2.50;;
39102;SDS011;24847;48.218;16.414;2022-09-16T03:27:07;2.65;;;2.40;;
39102;SDS011;24847;48.218;16.414;2022-09-16T03:32:19;4.00;;;2.78;;
39102;SDS011;24847;48.218;16.414;2022-09-16T03:37:28;4.15;;;2.67;;
39102;SDS011;24847;48.218;16.414;2022-09-16T03:42:33;3.30;;;2.58;;
39102;SDS011;24847;48.218;16.414;2022-09-16T03:47:41;2.38;;;2.10;;
39102;SDS011;24847;48.218;16.414;2022-09-16T03:52:45;2.33;;;2.13;;
39102;SDS011;24847;48.218;16.414;2022-09-16T03:57:51;4.30;;;2.47;;
39102;SDS011;24847;48.218;16.414;2022-09-16T04:02:54;2.53;;;2.33;;
39102;SDS011;24847;48.218;16.414;2022-09-16T04:07:58;4.45;;;2.55;;
39102;SDS011;24847;48.218;16.414;2022-09-16T04:13:02;2.45;;;2.25;;
39102;SDS011;24847;48.218;16.414;2022-09-16T04:18:06;2.78;;;2.38;;
39102;SDS011;24847;48.218;16.414;2022-09-16T04:23:09;3.05;;;2.60;;
39102;SDS011;24847;48.218;16.414;2022-09-16T04:28:12;2.67;;;2.47;;
39102;SDS011;24847;48.218;16.414;2022-09-16T04:33:14;3.85;;;2.83;;
39102;SDS011;24847;48.218;16.414;2022-09-16T04:38:17;2.78;;;2.55;;
39102;SDS011;24847;48.218;16.414;2022-09-16T04:43:20;4.30;;;2.70;;
39102;SDS011;24847;48.218;16.414;2022-09-16T04:48:22;3.25;;;2.65;;
39102;SDS011;24847;48.218;16.414;2022-09-16T04:53:26;5.88;;;3.05;;
39102;SDS011;24847;48.218;16.414;2022-09-16T04:58:28;2.92;;;2.63;;
39102;SDS011;24847;48.218;16.414;2022-09-16T05:03:31;2.90;;;2.70;;
39102;SDS011;24847;48.218;16.414;2022-09-16T05:08:35;3.33;;;3.00;;
39102;SDS011;24847;48.218;16.414;2022-09-16T05:13:37;3.45;;;3.00;;
39102;SDS011;24847;48.218;16.414;2022-09-16T05:18:41;3.08;;;2.78;;
39102;SDS011;24847;48.218;16.414;2022-09-16T05:23:46;3.53;;;3.22;;
39102;SDS011;24847;48.218;16.414;2022-09-16T05:28:50;4.15;;;3.28;;
39102;SDS011;24847;48.218;16.414;2022-09-16T05:33:54;2.63;;;2.42;;
39102;SDS011;24847;48.218;16.414;2022-09-16T05:38:59;6.05;;;5.50;;
39102;SDS011;24847;48.218;16.414;2022-09-16T05:44:01;5.22;;;4.13;;
39102;SDS011;24847;48.218;16.414;2022-09-16T05:49:05;5.30;;;3.25;;
39102;SDS011;24847;48.218;16.414;2022-09-16T05:54:09;3.00;;;2.70;;
39102;SDS011;24847;48.218;16.414;2022-09-16T05:59:12;3.75;;;2.55;;
39102;SDS011;24847;48.218;16.414;2022-09-16T06:04:15;3.05;;;2.75;;
39102;SDS011;24847;48.218;16.414;2022-09-16T06:09:19;2.70;;;2.40;;
39102;SDS011;24847;48.218;16.414;2022-09-16T06:14:23;3.65;;;2.20;;
39102;SDS011;24847;48.218;16.414;2022-09-16T06:19:26;4.47;;;2.25;;
39102;SDS011;24847;48.218;16.414;2022-09-16T06:24:30;3.15;;;2.28;;
39102;SDS011;24847;48.218;16.414;2022-09-16T06:29:32;3.38;;;2.45;;
39102;SDS011;24847;48.218;16.414;2022-09-16T06:34:35;2.45;;;2.25;;
39102;SDS011;24847;48.218;16.414;2022-09-16T06:39:38;2.83;;;2.50;;
39102;SDS011;24847;48.218;16.414;2022-09-16T06:44:41;2.10;;;1.90;;
39102;SDS011;24847;48.218;16.414;2022-09-16T06:49:43;2.60;;;2.25;;
39102;SDS011;24847;48.218;16.414;2022-09-16T06:54:47;3.22;;;1.95;;
39102;SDS011;24847;48.218;16.414;2022-09-16T06:59:50;1.83;;;1.73;;
39102;SDS011;24847;48.218;16.414;2022-09-16T07:04:52;2.25;;;2.05;;
39102;SDS011;24847;48.218;16.414;2022-09-16T07:09:56;3.03;;;1.75;;
39102;SDS011;24847;48.218;16.414;2022-09-16T07:14:58;1.77;;;1.58;;
39102;SDS011;24847;48.218;16.414;2022-09-16T07:20:00;3.22;;;1.90;;
39102;SDS011;24847;48.218;16.414;2022-09-16T07:25:05;1.98;;;1.65;;
39102;SDS011;24847;48.218;16.414;2022-09-16T07:30:08;2.05;;;1.70;;
39102;SDS011;24847;48.218;16.414;2022-09-16T07:35:11;3.53;;;1.80;;
39102;SDS011;24847;48.218;16.414;2022-09-16T07:40:15;2.25;;;1.90;;
39102;SDS011;24847;48.218;16.414;2022-09-16T07:45:17;2.85;;;1.70;;
39102;SDS011;24847;48.218;16.414;2022-09-16T07:50:20;2.08;;;1.65;;
39102;SDS011;24847;48.218;16.414;2022-09-16T07:55:23;3.08;;;1.92;;
39102;SDS011;24847;48.218;16.414;2022-09-16T08:00:26;2.40;;;1.73;;
39102;SDS011;24847;48.218;16.414;2022-09-16T08:05:28;1.75;;;1.65;;
39102;SDS011;24847;48.218;16.414;2022-09-16T08:10:32;2.50;;;1.65;;
39102;SDS011;24847;48.218;16.414;2022-09-16T08:15:36;2.65;;;1.63;;
39102;SDS011;24847;48.218;16.414;2022-09-16T08:20:38;3.05;;;1.60;;
39102;SDS011;24847;48.218;16.414;2022-09-16T08:25:41;2.47;;;1.70;;
39102;SDS011;24847;48.218;16.414;2022-09-16T08:30:44;1.67;;;1.52;;
39102;SDS011;24847;48.218;16.414;2022-09-16T08:35:47;2.45;;;1.58;;
39102;SDS011;24847;48.218;16.414;2022-09-16T08:41:03;2.13;;;1.60;;
39102;SDS011;24847;48.218;16.414;2022-09-16T08:46:26;2.50;;;1.20;;
39102;SDS011;24847;48.218;16.414;2022-09-16T08:51:35;2.95;;;1.73;;
39102;SDS011;24847;48.218;16.414;2022-09-16T08:56:38;3.08;;;1.60;;
39102;SDS011;24847;48.218;16.414;2022-09-16T09:01:43;3.20;;;1.70;;
39102;SDS011;24847;48.218;16.414;2022-09-16T09:06:55;1.63;;;1.50;;
39102;SDS011;24847;48.218;16.414;2022-09-16T09:12:09;1.85;;;1.70;;
39102;SDS011;24847;48.218;16.414;2022-09-16T09:17:21;1.55;;;1.35;;
39102;SDS011;24847;48.218;16.414;2022-09-16T09:22:40;4.43;;;1.70;;
39102;SDS011;24847;48.218;16.414;2022-09-16T09:27:58;1.77;;;1.40;;
39102;SDS011;24847;48.218;16.414;2022-09-16T09:33:20;1.92;;;1.60;;
39102;SDS011;24847;48.218;16.414;2022-09-16T09:44:12;1.75;;;1.52;;
39102;SDS011;24847;48.218;16.414;2022-09-16T09:49:43;3.10;;;2.25;;
39102;SDS011;24847;48.218;16.414;2022-09-16T09:54:50;3.72;;;2.00;;
39102;SDS011;24847;48.218;16.414;2022-09-16T09:59:57;2.25;;;2.05;;
39102;SDS011;24847;48.218;16.414;2022-09-16T10:05:09;2.70;;;2.40;;
39102;SDS011;24847;48.218;16.414;2022-09-16T10:10:21;4.15;;;2.30;;
39102;SDS011;24847;48.218;16.414;2022-09-16T10:15:28;2.88;;;2.22;;
39102;SDS011;24847;48.218;16.414;2022-09-16T10:20:32;2.58;;;2.20;;
39102;SDS011;24847;48.218;16.414;2022-09-16T10:25:37;3.78;;;2.58;;
39102;SDS011;24847;48.218;16.414;2022-09-16T10:30:44;5.15;;;3.00;;
39102;SDS011;24847;48.218;16.414;2022-09-16T10:35:51;4.40;;;2.63;;
39102;SDS011;24847;48.218;16.414;2022-09-16T10:40:59;3.00;;;2.45;;
39102;SDS011;24847;48.218;16.414;2022-09-16T10:46:09;4.13;;;2.80;;
39102;SDS011;24847;48.218;16.414;2022-09-16T10:51:20;3.40;;;2.95;;
39102;SDS011;24847;48.218;16.414;2022-09-16T11:01:33;2.63;;;2.28;;
39102;SDS011;24847;48.218;16.414;2022-09-16T11:06:51;3.35;;;2.90;;
39102;SDS011;24847;48.218;16.414;2022-09-16T11:12:07;3.33;;;2.97;;
39102;SDS011;24847;48.218;16.414;2022-09-16T11:17:59;4.30;;;2.80;;
39102;SDS011;24847;48.218;16.414;2022-09-16T11:23:32;3.50;;;2.53;;
39102;SDS011;24847;48.218;16.414;2022-09-16T11:29:01;3.90;;;2.65;;
39102;SDS011;24847;48.218;16.414;2022-09-16T11:34:22;3.42;;;2.75;;
39102;SDS011;24847;48.218;16.414;2022-09-16T11:39:56;3.35;;;2.67;;
39102;SDS011;24847;48.218;16.414;2022-09-16T11:45:25;3.88;;;3.05;;
39102;SDS011;24847;48.218;16.414;2022-09-16T11:50:46;2.53;;;2.33;;
39102;SDS011;24847;48.218;16.414;2022-09-16T11:55:57;4.00;;;2.42;;
39102;SDS011;24847;48.218;16.414;2022-09-16T12:01:08;4.53;;;2.50;;
39102;SDS011;24847;48.218;16.414;2022-09-16T12:06:20;2.78;;;2.17;;
39102;SDS011;24847;48.218;16.414;2022-09-16T12:11:26;3.20;;;2.22;;
39102;SDS011;24847;48.218;16.414;2022-09-16T12:16:34;3.72;;;2.10;;
39102;SDS011;24847;48.218;16.414;2022-09-16T12:21:45;3.28;;;2.22;;
39102;SDS011;24847;48.218;16.414;2022-09-16T12:26:52;2.42;;;2.22;;
39102;SDS011;24847;48.218;16.414;2022-09-16T12:32:03;3.20;;;1.92;;
39102;SDS011;24847;48.218;16.414;2022-09-16T12:37:18;3.20;;;2.03;;
39102;SDS011;24847;48.218;16.414;2022-09-16T12:42:45;2.30;;;2.03;;
39102;SDS011;24847;48.218;16.414;2022-09-16T12:48:29;4.03;;;2.35;;
39102;SDS011;24847;48.218;16.414;2022-09-16T12:54:08;2.33;;;2.13;;
39102;SDS011;24847;48.218;16.414;2022-09-16T12:59:33;3.50;;;2.40;;
39102;SDS011;24847;48.218;16.414;2022-09-16T13:05:09;2.38;;;2.17;;
39102;SDS011;24847;48.218;16.414;2022-09-16T13:10:20;2.00;;;1.80;;
39102;SDS011;24847;48.218;16.414;2022-09-16T13:15:29;2.42;;;2.22;;
39102;SDS011;24847;48.218;16.414;2022-09-16T13:20:34;3.05;;;2.67;;
39102;SDS011;24847;48.218;16.414;2022-09-16T13:25:44;2.60;;;2.20;;
39102;SDS011;24847;48.218;16.414;2022-09-16T13:30:51;2.17;;;1.98;;
39102;SDS011;24847;48.218;16.414;2022-09-16T13:36:02;2.92;;;2.20;;
39102;SDS011;24847;48.218;16.414;2022-09-16T13:41:28;3.15;;;2.13;;
39102;SDS011;24847;48.218;16.414;2022-09-16T13:46:34;3.15;;;2.55;;
39102;SDS011;24847;48.218;16.414;2022-09-16T13:51:38;3.22;;;2.30;;
39102;SDS011;24847;48.218;16.414;2022-09-16T13:56:48;3.35;;;2.50;;
39102;SDS011;24847;48.218;16.414;2022-09-16T14:02:06;2.92;;;2.10;;
39102;SDS011;24847;48.218;16.414;2022-09-16T14:07:21;5.45;;;1.88;;
39102;SDS011;24847;48.218;16.414;2022-09-16T14:12:41;2.60;;;2.03;;
39102;SDS011;24847;48.218;16.414;2022-09-16T14:17:57;2.57;;;2.37;;
39102;SDS011;24847;48.218;16.414;2022-09-16T14:23:03;3.55;;;2.90;;
39102;SDS011;24847;48.218;16.414;2022-09-16T14:28:20;3.70;;;3.15;;
39102;SDS011;24847;48.218;16.414;2022-09-16T14:33:25;4.53;;;3.58;;
39102;SDS011;24847;48.218;16.414;2022-09-16T14:38:32;2.80;;;2.47;;
39102;SDS011;24847;48.218;16.414;2022-09-16T14:43:39;2.65;;;2.33;;
39102;SDS011;24847;48.218;16.414;2022-09-16T14:48:41;4.00;;;2.20;;
39102;SDS011;24847;48.218;16.414;2022-09-16T14:53:51;3.30;;;2.20;;
39102;SDS011;24847;48.218;16.414;2022-09-16T14:58:57;4.53;;;2.35;;
39102;SDS011;24847;48.218;16.414;2022-09-16T15:04:01;2.58;;;2.10;;
39102;SDS011;24847;48.218;16.414;2022-09-16T15:09:12;3.25;;;2.08;;
39102;SDS011;24847;48.218;16.414;2022-09-16T15:14:22;2.13;;;1.92;;
39102;SDS011;24847;48.218;16.414;2022-09-16T15:19:26;2.10;;;1.90;;
39102;SDS011;24847;48.218;16.414;2022-09-16T15:24:32;2.13;;;1.92;;
39102;SDS011;24847;48.218;16.414;2022-09-16T15:29:45;3.75;;;2.20;;
39102;SDS011;24847;48.218;16.414;2022-09-16T15:34:59;1.98;;;1.60;;
39102;SDS011;24847;48.218;16.414;2022-09-16T15:40:19;3.50;;;2.25;;
39102;SDS011;24847;48.218;16.414;2022-09-16T15:45:35;2.63;;;2.00;;
39102;SDS011;24847;48.218;16.414;2022-09-16T15:50:39;3.95;;;3.42;;
39102;SDS011;24847;48.218;16.414;2022-09-16T15:55:51;3.22;;;2.92;;
39102;SDS011;24847;48.218;16.414;2022-09-16T16:01:00;3.08;;;2.65;;
39102;SDS011;24847;48.218;16.414;2022-09-16T16:06:07;2.28;;;2.08;;
39102;SDS011;24847;48.218;16.414;2022-09-16T16:11:10;2.13;;;1.88;;
39102;SDS011;24847;48.218;16.414;2022-09-16T16:16:15;6.18;;;5.15;;
39102;SDS011;24847;48.218;16.414;2022-09-16T16:21:18;3.80;;;2.60;;
39102;SDS011;24847;48.218;16.414;2022-09-16T16:26:20;3.08;;;2.53;;
39102;SDS011;24847;48.218;16.414;2022-09-16T16:31:25;3.83;;;2.60;;
39102;SDS011;24847;48.218;16.414;2022-09-16T16:36:27;3.70;;;2.63;;
39102;SDS011;24847;48.218;16.414;2022-09-16T16:41:29;4.50;;;3.05;;
39102;SDS011;24847;48.218;16.414;2022-09-16T16:46:33;3.90;;;3.05;;
39102;SDS011;24847;48.218;16.414;2022-09-16T16:51:35;2.95;;;2.47;;
39102;SDS011;24847;48.218;16.414;2022-09-16T16:56:37;3.40;;;2.58;;
39102;SDS011;24847;48.218;16.414;2022-09-16T17:01:42;3.45;;;3.03;;
39102;SDS011;24847;48.218;16.414;2022-09-16T17:06:45;3.58;;;2.72;;
39102;SDS011;24847;48.218;16.414;2022-09-16T17:11:49;4.53;;;3.35;;
39102;SDS011;24847;48.218;16.414;2022-09-16T17:16:55;4.10;;;3.40;;
39102;SDS011;24847;48.218;16.414;2022-09-16T17:21:57;3.63;;;3.33;;
39102;SDS011;24847;48.218;16.414;2022-09-16T17:27:00;4.28;;;3.80;;
39102;SDS011;24847;48.218;16.414;2022-09-16T17:32:04;6.38;;;5.32;;
39102;SDS011;24847;48.218;16.414;2022-09-16T17:37:07;4.72;;;4.25;;
39102;SDS011;24847;48.218;16.414;2022-09-16T17:42:09;4.85;;;4.35;;
39102;SDS011;24847;48.218;16.414;2022-09-16T17:47:12;4.68;;;4.13;;
39102;SDS011;24847;48.218;16.414;2022-09-16T17:52:15;3.80;;;3.30;;
39102;SDS011;24847;48.218;16.414;2022-09-16T17:57:17;3.63;;;2.60;;
39102;SDS011;24847;48.218;16.414;2022-09-16T18:02:21;7.55;;;6.43;;
39102;SDS011;24847;48.218;16.414;2022-09-16T18:07:23;5.15;;;3.15;;
39102;SDS011;24847;48.218;16.414;2022-09-16T18:12:25;3.00;;;2.58;;
39102;SDS011;24847;48.218;16.414;2022-09-16T18:17:29;2.17;;;1.92;;
39102;SDS011;24847;48.218;16.414;2022-09-16T18:22:31;2.17;;;1.73;;
39102;SDS011;24847;48.218;16.414;2022-09-16T18:27:33;1.95;;;1.70;;
39102;SDS011;24847;48.218;16.414;2022-09-16T18:32:37;2.03;;;1.40;;
39102;SDS011;24847;48.218;16.414;2022-09-16T18:37:39;2.70;;;1.77;;
39102;SDS011;24847;48.218;16.414;2022-09-16T18:42:41;2.00;;;1.80;;
39102;SDS011;24847;48.218;16.414;2022-09-16T18:47:45;2.40;;;1.80;;
39102;SDS011;24847;48.218;16.414;2022-09-16T18:52:47;2.60;;;1.90;;
39102;SDS011;24847;48.218;16.414;2022-09-16T18:57:49;2.35;;;1.70;;
39102;SDS011;24847;48.218;16.414;2022-09-16T19:02:53;1.88;;;1.77;;
39102;SDS011;24847;48.218;16.414;2022-09-16T19:07:55;2.40;;;1.75;;
39102;SDS011;24847;48.218;16.414;2022-09-16T19:12:57;2.60;;;2.00;;
39102;SDS011;24847;48.218;16.414;2022-09-16T19:18:02;2.20;;;2.00;;
39102;SDS011;24847;48.218;16.414;2022-09-16T19:23:04;4.05;;;2.13;;
39102;SDS011;24847;48.218;16.414;2022-09-16T19:28:06;2.53;;;1.55;;
39102;SDS011;24847;48.218;16.414;2022-09-16T19:33:10;1.73;;;1.63;;
39102;SDS011;24847;48.218;16.414;2022-09-16T19:38:13;2.47;;;1.60;;
39102;SDS011;24847;48.218;16.414;2022-09-16T19:43:15;2.30;;;1.52;;
39102;SDS011;24847;48.218;16.414;2022-09-16T19:48:19;1.85;;;1.70;;
39102;SDS011;24847;48.218;16.414;2022-09-16T19:53:21;2.58;;;1.73;;
39102;SDS011;24847;48.218;16.414;2022-09-16T19:58:23;2.75;;;1.73;;
39102;SDS011;24847;48.218;16.414;2022-09-16T20:03:28;3.97;;;2.15;;
39102;SDS011;24847;48.218;16.414;2022-09-16T20:08:32;2.08;;;1.63;;
39102;SDS011;24847;48.218;16.414;2022-09-16T20:13:35;1.50;;;1.40;;
39102;SDS011;24847;48.218;16.414;2022-09-16T20:18:39;2.72;;;1.90;;
39102;SDS011;24847;48.218;16.414;2022-09-16T20:23:42;2.05;;;1.85;;
39102;SDS011;24847;48.218;16.414;2022-09-16T20:28:45;2.45;;;1.50;;
39102;SDS011;24847;48.218;16.414;2022-09-16T20:33:51;2.03;;;1.40;;
39102;SDS011;24847;48.218;16.414;2022-09-16T20:38:54;2.50;;;1.77;;
39102;SDS011;24847;48.218;16.414;2022-09-16T20:43:58;2.38;;;1.70;;
39102;SDS011;24847;48.218;16.414;2022-09-16T20:49:03;2.70;;;1.63;;
39102;SDS011;24847;48.218;16.414;2022-09-16T20:54:10;1.50;;;1.40;;
39102;SDS011;24847;48.218;16.414;2022-09-16T20:59:15;2.50;;;1.60;;
39102;SDS011;24847;48.218;16.414;2022-09-16T21:04:20;3.05;;;1.40;;
39102;SDS011;24847;48.218;16.414;2022-09-16T21:09:22;1.85;;;1.63;;
39102;SDS011;24847;48.218;16.414;2022-09-16T21:14:24;3.05;;;1.80;;
39102;SDS011;24847;48.218;16.414;2022-09-16T21:19:28;3.58;;;1.83;;
39102;SDS011;24847;48.218;16.414;2022-09-16T21:24:31;2.00;;;1.58;;
39102;SDS011;24847;48.218;16.414;2022-09-16T21:29:33;1.60;;;1.30;;
39102;SDS011;24847;48.218;16.414;2022-09-16T21:34:36;1.75;;;1.38;;
39102;SDS011;24847;48.218;16.414;2022-09-16T21:39:39;1.77;;;1.50;;
39102;SDS011;24847;48.218;16.414;2022-09-16T21:44:41;1.95;;;1.70;;
39102;SDS011;24847;48.218;16.414;2022-09-16T21:49:44;2.50;;;1.38;;
39102;SDS011;24847;48.218;16.414;2022-09-16T21:54:49;2.03;;;1.67;;
39102;SDS011;24847;48.218;16.414;2022-09-16T21:59:51;1.42;;;1.30;;
39102;SDS011;24847;48.218;16.414;2022-09-16T22:04:55;1.50;;;1.40;;
39102;SDS011;24847;48.218;16.414;2022-09-16T22:09:57;2.80;;;1.52;;
39102;SDS011;24847;48.218;16.414;2022-09-16T22:14:59;3.08;;;2.13;;
39102;SDS011;24847;48.218;16.414;2022-09-16T22:20:03;6.45;;;1.67;;
39102;SDS011;24847;48.218;16.414;2022-09-16T22:25:07;1.23;;;1.13;;
39102;SDS011;24847;48.218;16.414;2022-09-16T22:30:10;2.03;;;1.27;;
39102;SDS011;24847;48.218;16.414;2022-09-16T22:35:14;4.05;;;1.27;;
39102;SDS011;24847;48.218;16.414;2022-09-16T22:40:16;1.08;;;0.98;;
39102;SDS011;24847;48.218;16.414;2022-09-16T22:45:19;1.20;;;1.10;;
39102;SDS011;24847;48.218;16.414;2022-09-16T22:50:23;1.40;;;1.20;;
39102;SDS011;24847;48.218;16.414;2022-09-16T22:55:25;1.35;;;1.13;;
39102;SDS011;24847;48.218;16.414;2022-09-16T23:00:27;2.88;;;1.30;;
39102;SDS011;24847;48.218;16.414;2022-09-16T23:05:30;1.70;;;1.25;;
39102;SDS011;24847;48.218;16.414;2022-09-16T23:10:35;1.02;;;0.93;;
39102;SDS011;24847;48.218;16.414;2022-09-16T23:15:37;1.52;;;1.35;;
39102;SDS011;24847;48.218;16.414;2022-09-16T23:20:41;1.95;;;1.40;;
39102;SDS011;24847;48.218;16.414;2022-09-16T23:25:43;1.23;;;1.13;;
39102;SDS011;24847;48.218;16.414;2022-09-16T23:30:45;2.25;;;1.30;;
39102;SDS011;24847;48.218;16.414;2022-09-16T23:35:49;1.40;;;1.30;;
39102;SDS011;24847;48.218;16.414;2022-09-16T23:40:51;1.27;;;1.17;;
39102;SDS011;24847;48.218;16.414;2022-09-16T23:45:54;1.58;;;1.27;;
39102;SDS011;24847;48.218;16.414;2022-09-16T23:50:58;1.50;;;1.40;;
39102;SDS011;24847;48.218;16.414;2022-09-16T23:56:03;1.67;;;1.20;;
